createdAt,value
2017-03-31T00:00:56.407Z,18.10
2017-03-31T00:01:55.407Z,26.75
2017-03-31T00:02:54.376Z,45.48
2017-03-31T00:03:53.379Z,24.48
2017-03-31T00:04:52.354Z,22.20
2017-03-31T00:05:51.476Z,27.12
2017-03-31T00:06:50.099Z,19.42
2017-03-31T00:07:48.688Z,20.45
2017-03-31T00:08:47.691Z,27.75
2017-03-31T00:09:46.271Z,26.60
2017-03-31T00:10:45.232Z,19.73
2017-03-31T00:11:44.331Z,27.67
2017-03-31T00:12:43.354Z,26.73
2017-03-31T00:13:42.301Z,23.80
2017-03-31T00:14:41.332Z,33.23
2017-03-31T00:15:40.365Z,29.68
2017-03-31T00:16:39.369Z,25.52
2017-03-31T00:17:38.411Z,20.22
2017-03-31T00:18:37.744Z,20.77
2017-03-31T00:19:36.400Z,24.63
2017-03-31T00:20:35.340Z,36.17
2017-03-31T00:21:34.344Z,26.03
2017-03-31T00:22:33.349Z,20.37
2017-03-31T00:23:32.396Z,34.87
2017-03-31T00:24:31.393Z,26.92
2017-03-31T00:25:30.432Z,20.08
2017-03-31T00:26:29.423Z,23.37
2017-03-31T00:27:28.747Z,25.12
2017-03-31T00:28:27.767Z,23.47
2017-03-31T00:29:26.773Z,18.72
2017-03-31T00:30:25.837Z,26.05
2017-03-31T00:31:24.764Z,24.28
2017-03-31T00:32:23.759Z,22.92
2017-03-31T00:33:22.840Z,24.23
2017-03-31T00:34:21.867Z,22.78
2017-03-31T00:35:20.856Z,19.80
2017-03-31T00:36:19.851Z,24.72
2017-03-31T00:37:18.848Z,26.88
2017-03-31T00:38:17.805Z,23.85
2017-03-31T00:39:16.856Z,24.52
2017-03-31T00:40:16.640Z,20.72
2017-03-31T00:41:15.624Z,21.97
2017-03-31T00:42:14.638Z,17.20
2017-03-31T00:43:13.639Z,21.82
2017-03-31T00:44:12.269Z,26.17
2017-03-31T00:45:11.250Z,20.23
2017-03-31T00:46:10.240Z,16.35
2017-03-31T00:47:09.289Z,22.57
2017-03-31T00:48:08.892Z,21.72
2017-03-31T00:49:07.834Z,22.97
2017-03-31T00:50:06.511Z,28.55
2017-03-31T00:51:05.534Z,27.45
2017-03-31T00:52:04.591Z,17.48
2017-03-31T00:53:03.575Z,16.50
2017-03-31T00:54:02.184Z,19.53
2017-03-31T00:55:01.731Z,26.87
2017-03-31T00:56:00.726Z,20.72
2017-03-31T00:56:59.702Z,23.75
2017-03-31T00:57:58.738Z,17.28
2017-03-31T00:58:57.838Z,20.85
2017-03-31T00:59:56.799Z,22.58
2017-03-31T01:00:55.852Z,21.05
2017-03-31T01:01:54.831Z,25.27
2017-03-31T01:02:53.435Z,28.60
2017-03-31T01:03:51.972Z,20.10
2017-03-31T01:04:50.684Z,19.55
2017-03-31T01:05:49.719Z,30.65
2017-03-31T01:06:48.728Z,26.75
2017-03-31T01:07:47.663Z,21.60
2017-03-31T01:08:46.593Z,20.47
2017-03-31T01:09:45.232Z,18.90
2017-03-31T01:10:44.202Z,23.70
2017-03-31T01:11:43.292Z,18.07
2017-03-31T01:12:42.284Z,18.22
2017-03-31T01:13:41.254Z,14.95
2017-03-31T01:14:40.298Z,24.27
2017-03-31T01:15:39.285Z,27.00
2017-03-31T01:16:37.934Z,19.90
2017-03-31T01:17:36.936Z,26.68
2017-03-31T01:18:35.999Z,19.72
2017-03-31T01:19:34.974Z,24.08
2017-03-31T01:20:34.024Z,24.80
2017-03-31T01:21:33.467Z,22.52
2017-03-31T01:22:32.547Z,23.60
2017-03-31T01:23:31.582Z,28.42
2017-03-31T01:24:30.175Z,35.60
2017-03-31T01:25:29.172Z,31.25
2017-03-31T01:26:28.165Z,33.13
2017-03-31T01:27:27.187Z,28.72
2017-03-31T01:28:25.803Z,22.47
2017-03-31T01:29:24.840Z,28.53
2017-03-31T01:30:23.808Z,27.12
2017-03-31T01:31:22.801Z,23.93
2017-03-31T01:32:21.942Z,29.63
2017-03-31T01:33:20.936Z,27.82
2017-03-31T01:34:19.936Z,24.45
2017-03-31T01:35:18.556Z,43.15
2017-03-31T01:36:17.539Z,25.10
2017-03-31T01:37:16.534Z,29.83
2017-03-31T01:38:15.891Z,39.53
2017-03-31T01:39:14.902Z,28.35
2017-03-31T01:40:13.874Z,31.43
2017-03-31T01:41:12.595Z,28.45
2017-03-31T01:42:11.651Z,31.52
2017-03-31T01:43:10.626Z,33.10
2017-03-31T01:44:09.607Z,37.10
2017-03-31T01:45:09.003Z,36.57
2017-03-31T01:46:08.324Z,32.63
2017-03-31T01:47:07.404Z,41.77
2017-03-31T01:48:06.421Z,43.25
2017-03-31T01:49:05.390Z,30.33
2017-03-31T01:50:03.992Z,30.73
2017-03-31T01:51:03.000Z,31.88
2017-03-31T01:52:02.033Z,30.12
2017-03-31T01:53:01.413Z,28.33
2017-03-31T01:54:00.375Z,35.18
2017-03-31T01:54:59.315Z,42.95
2017-03-31T01:55:58.699Z,32.65
2017-03-31T01:56:57.679Z,50.90
2017-03-31T01:57:56.648Z,34.68
2017-03-31T01:58:55.674Z,35.03
2017-03-31T01:59:54.700Z,34.88
2017-03-31T02:00:53.823Z,35.82
2017-03-31T02:01:52.787Z,38.88
2017-03-31T02:02:51.787Z,47.40
2017-03-31T02:03:50.469Z,36.98
2017-03-31T02:04:49.491Z,35.50
2017-03-31T02:05:48.892Z,39.95
2017-03-31T02:06:48.256Z,27.87
2017-03-31T02:07:47.307Z,35.90
2017-03-31T02:08:46.296Z,34.83
2017-03-31T02:09:45.296Z,33.25
2017-03-31T02:10:43.960Z,35.83
2017-03-31T02:11:43.035Z,37.98
2017-03-31T02:12:42.056Z,33.93
2017-03-31T02:13:40.669Z,32.85
2017-03-31T02:14:39.643Z,35.67
2017-03-31T02:15:39.049Z,47.22
2017-03-31T02:16:37.659Z,42.13
2017-03-31T02:17:36.226Z,35.80
2017-03-31T02:18:35.223Z,33.23
2017-03-31T02:19:34.153Z,33.05
2017-03-31T02:20:33.112Z,31.95
2017-03-31T02:21:32.101Z,35.40
2017-03-31T02:22:31.447Z,32.40
2017-03-31T02:23:30.443Z,32.92
2017-03-31T02:24:29.379Z,28.07
2017-03-31T02:25:28.379Z,33.02
2017-03-31T02:26:26.985Z,68.17
2017-03-31T02:27:25.939Z,94.68
2017-03-31T02:28:24.967Z,88.90
2017-03-31T02:29:23.959Z,72.70
2017-03-31T02:30:22.576Z,98.37
2017-03-31T02:31:21.581Z,53.12
2017-03-31T02:32:20.580Z,74.72
2017-03-31T02:33:19.130Z,57.55
2017-03-31T02:34:18.224Z,62.55
2017-03-31T02:35:17.976Z,69.02
2017-03-31T02:36:16.938Z,43.50
2017-03-31T02:37:15.643Z,50.90
2017-03-31T02:38:14.986Z,47.85
2017-03-31T02:39:13.917Z,36.68
2017-03-31T02:40:12.995Z,36.78
2017-03-31T02:41:11.923Z,46.82
2017-03-31T02:42:10.555Z,35.85
2017-03-31T02:43:09.578Z,40.13
2017-03-31T02:44:08.591Z,29.65
2017-03-31T02:45:07.549Z,34.80
2017-03-31T02:46:06.591Z,25.68
2017-03-31T02:47:05.667Z,26.85
2017-03-31T02:48:04.701Z,22.28
2017-03-31T02:49:03.772Z,26.05
2017-03-31T02:50:02.796Z,30.25
2017-03-31T02:51:01.730Z,20.65
2017-03-31T02:52:00.755Z,27.63
2017-03-31T02:52:59.755Z,34.70
2017-03-31T02:53:58.732Z,27.05
2017-03-31T02:54:57.649Z,24.47
2017-03-31T02:55:56.709Z,23.40
2017-03-31T02:56:55.732Z,31.42
2017-03-31T02:57:54.319Z,28.95
2017-03-31T02:58:54.035Z,38.47
2017-03-31T02:59:52.995Z,31.40
2017-03-31T03:00:52.007Z,24.75
2017-03-31T03:01:51.015Z,26.23
2017-03-31T03:02:50.036Z,27.07
2017-03-31T03:03:49.025Z,26.30
2017-03-31T03:04:48.059Z,27.90
2017-03-31T03:05:47.027Z,27.25
2017-03-31T03:06:46.048Z,26.83
2017-03-31T03:07:45.022Z,28.05
2017-03-31T03:08:44.003Z,26.03
2017-03-31T03:09:42.972Z,31.70
2017-03-31T03:10:41.976Z,25.63
2017-03-31T03:11:40.931Z,28.60
2017-03-31T03:12:39.935Z,30.45
2017-03-31T03:13:38.881Z,32.32
2017-03-31T03:14:37.924Z,35.40
2017-03-31T03:15:37.311Z,32.45
2017-03-31T03:16:36.335Z,33.37
2017-03-31T03:17:34.976Z,35.03
2017-03-31T03:18:33.972Z,33.13
2017-03-31T03:19:32.964Z,31.58
2017-03-31T03:20:31.941Z,36.50
2017-03-31T03:21:30.976Z,41.45
2017-03-31T03:22:29.980Z,32.58
2017-03-31T03:23:28.996Z,30.22
2017-03-31T03:24:27.989Z,39.35
2017-03-31T03:25:26.992Z,33.15
2017-03-31T03:26:25.943Z,30.62
2017-03-31T03:27:24.571Z,39.15
2017-03-31T03:28:23.231Z,33.87
2017-03-31T03:29:22.239Z,37.73
2017-03-31T03:30:21.308Z,39.58
2017-03-31T03:31:20.319Z,35.37
2017-03-31T03:32:19.303Z,47.12
2017-03-31T03:33:18.302Z,33.30
2017-03-31T03:34:16.840Z,45.53
2017-03-31T03:35:15.848Z,40.42
2017-03-31T03:36:14.856Z,35.48
2017-03-31T03:37:14.158Z,38.47
2017-03-31T03:38:13.192Z,39.75
2017-03-31T03:39:12.164Z,40.45
2017-03-31T03:40:11.134Z,34.17
2017-03-31T03:41:10.140Z,43.25
2017-03-31T03:42:09.128Z,44.30
2017-03-31T03:43:08.117Z,43.78
2017-03-31T03:44:07.175Z,35.02
2017-03-31T03:45:06.519Z,43.10
2017-03-31T03:46:05.116Z,52.43
2017-03-31T03:47:04.151Z,41.08
2017-03-31T03:48:03.124Z,34.95
2017-03-31T03:49:02.140Z,40.25
2017-03-31T03:50:01.192Z,46.20
2017-03-31T03:51:00.195Z,49.35
2017-03-31T03:51:58.775Z,39.40
2017-03-31T03:52:57.776Z,44.00
2017-03-31T03:53:56.847Z,39.32
2017-03-31T03:54:55.840Z,47.00
2017-03-31T03:55:55.176Z,40.55
2017-03-31T03:56:53.767Z,40.48
2017-03-31T03:57:52.724Z,46.80
2017-03-31T03:58:51.748Z,41.57
2017-03-31T03:59:50.762Z,36.32
2017-03-31T04:00:49.352Z,37.02
2017-03-31T04:01:48.307Z,47.88
2017-03-31T04:02:47.295Z,45.67
2017-03-31T04:03:46.266Z,41.68
2017-03-31T04:04:44.907Z,43.35
2017-03-31T04:05:43.920Z,49.83
2017-03-31T04:06:42.931Z,41.05
2017-03-31T04:07:42.287Z,40.93
2017-03-31T04:08:41.272Z,42.33
2017-03-31T04:09:40.277Z,39.12
2017-03-31T04:10:38.852Z,44.25
2017-03-31T04:11:37.932Z,42.25
2017-03-31T04:12:37.014Z,43.63
2017-03-31T04:13:35.612Z,42.72
2017-03-31T04:14:34.907Z,39.17
2017-03-31T04:15:33.928Z,37.53
2017-03-31T04:16:32.899Z,42.83
2017-03-31T04:17:31.975Z,44.43
2017-03-31T04:18:30.994Z,45.20
2017-03-31T04:19:29.975Z,51.57
2017-03-31T04:20:28.950Z,40.27
2017-03-31T04:21:27.918Z,40.55
2017-03-31T04:22:27.024Z,40.52
2017-03-31T04:23:26.095Z,40.82
2017-03-31T04:24:25.045Z,41.43
2017-03-31T04:25:24.062Z,41.38
2017-03-31T04:26:23.060Z,43.93
2017-03-31T04:27:22.127Z,35.88
2017-03-31T04:28:21.139Z,39.92
2017-03-31T04:29:20.196Z,43.28
2017-03-31T04:30:19.207Z,38.02
2017-03-31T04:31:18.187Z,39.37
2017-03-31T04:32:17.199Z,39.57
2017-03-31T04:33:16.544Z,42.05
2017-03-31T04:34:15.164Z,44.02
2017-03-31T04:35:14.187Z,35.18
2017-03-31T04:36:13.192Z,52.18
2017-03-31T04:37:12.572Z,40.25
2017-03-31T04:38:11.570Z,38.42
2017-03-31T04:39:10.531Z,42.00
2017-03-31T04:40:09.887Z,43.50
2017-03-31T04:41:09.237Z,41.58
2017-03-31T04:42:08.238Z,41.30
2017-03-31T04:43:07.235Z,53.82
2017-03-31T04:44:06.555Z,38.57
2017-03-31T04:45:05.552Z,44.23
2017-03-31T04:46:04.560Z,42.90
2017-03-31T04:47:03.563Z,41.10
2017-03-31T04:48:02.560Z,39.87
2017-03-31T04:49:01.536Z,44.50
2017-03-31T04:50:00.528Z,35.85
2017-03-31T04:50:59.092Z,40.60
2017-03-31T04:51:58.076Z,40.15
2017-03-31T04:52:56.662Z,34.32
2017-03-31T04:53:55.663Z,38.10
2017-03-31T04:54:54.323Z,35.90
2017-03-31T04:55:53.348Z,44.57
2017-03-31T04:56:52.328Z,40.10
2017-03-31T04:57:51.271Z,38.30
2017-03-31T04:58:50.296Z,43.77
2017-03-31T04:59:49.793Z,42.07
2017-03-31T05:00:48.452Z,55.38
2017-03-31T05:01:47.119Z,43.10
2017-03-31T05:02:46.127Z,40.07
2017-03-31T05:03:45.079Z,36.85
2017-03-31T05:04:44.109Z,39.77
2017-03-31T05:05:43.014Z,37.95
2017-03-31T05:06:41.656Z,38.72
2017-03-31T05:07:40.708Z,37.13
2017-03-31T05:08:40.039Z,34.88
2017-03-31T05:09:39.011Z,43.08
2017-03-31T05:10:37.989Z,30.82
2017-03-31T05:11:37.007Z,45.88
2017-03-31T05:12:35.952Z,42.92
2017-03-31T05:13:34.911Z,39.88
2017-03-31T05:14:33.961Z,42.27
2017-03-31T05:15:32.931Z,31.58
2017-03-31T05:16:31.890Z,41.30
2017-03-31T05:17:30.539Z,38.13
2017-03-31T05:18:29.515Z,39.42
2017-03-31T05:19:28.536Z,44.45
2017-03-31T05:20:27.562Z,42.72
2017-03-31T05:21:26.536Z,36.05
2017-03-31T05:22:25.543Z,41.60
2017-03-31T05:23:24.544Z,29.40
2017-03-31T05:24:23.539Z,44.40
2017-03-31T05:25:22.902Z,37.43
2017-03-31T05:26:21.884Z,46.42
2017-03-31T05:27:20.924Z,38.43
2017-03-31T05:28:19.860Z,38.05
2017-03-31T05:29:18.874Z,45.97
2017-03-31T05:30:17.872Z,50.45
2017-03-31T05:31:16.907Z,46.00
2017-03-31T05:32:15.547Z,60.32
2017-03-31T05:33:14.560Z,52.77
2017-03-31T05:34:13.539Z,39.42
2017-03-31T05:35:12.520Z,36.45
2017-03-31T05:36:11.107Z,39.02
2017-03-31T05:37:10.099Z,32.88
2017-03-31T05:38:09.035Z,33.28
2017-03-31T05:39:08.047Z,38.12
2017-03-31T05:40:07.039Z,36.58
2017-03-31T05:41:06.047Z,50.77
2017-03-31T05:42:05.063Z,41.72
2017-03-31T05:43:03.699Z,36.85
2017-03-31T05:44:02.296Z,38.47
2017-03-31T05:45:01.307Z,42.50
2017-03-31T05:46:00.264Z,41.33
2017-03-31T05:46:59.403Z,40.05
2017-03-31T05:47:58.487Z,37.13
2017-03-31T05:48:57.496Z,44.78
2017-03-31T05:49:56.119Z,37.15
2017-03-31T05:50:54.637Z,30.68
2017-03-31T05:51:53.687Z,40.70
2017-03-31T05:52:52.687Z,35.28
2017-03-31T05:53:51.632Z,38.87
2017-03-31T05:54:50.255Z,43.72
2017-03-31T05:55:49.227Z,50.93
2017-03-31T05:56:48.247Z,43.08
2017-03-31T05:57:47.606Z,35.18
2017-03-31T05:58:46.573Z,34.95
2017-03-31T05:59:45.536Z,34.30
2017-03-31T06:00:44.275Z,43.50
2017-03-31T06:01:43.210Z,41.37
2017-03-31T06:02:42.223Z,33.50
2017-03-31T06:03:41.160Z,34.05
2017-03-31T06:04:40.192Z,48.12
2017-03-31T06:05:39.140Z,41.47
2017-03-31T06:06:38.197Z,37.67
2017-03-31T06:07:37.235Z,43.38
2017-03-31T06:08:36.220Z,44.37
2017-03-31T06:09:34.867Z,46.37
2017-03-31T06:10:33.878Z,41.27
2017-03-31T06:11:32.838Z,32.75
2017-03-31T06:12:31.854Z,37.50
2017-03-31T06:13:30.466Z,33.15
2017-03-31T06:14:29.440Z,37.30
2017-03-31T06:15:28.433Z,35.70
2017-03-31T06:16:27.487Z,29.80
2017-03-31T06:17:26.499Z,47.40
2017-03-31T06:18:25.599Z,44.00
2017-03-31T06:19:24.628Z,44.28
2017-03-31T06:20:23.645Z,37.80
2017-03-31T06:21:22.704Z,37.53
2017-03-31T06:22:21.851Z,34.43
2017-03-31T06:23:20.817Z,41.43
2017-03-31T06:24:19.830Z,34.53
2017-03-31T06:25:18.858Z,36.73
2017-03-31T06:26:17.871Z,35.83
2017-03-31T06:27:16.455Z,46.40
2017-03-31T06:28:15.479Z,41.03
2017-03-31T06:29:14.113Z,31.78
2017-03-31T06:30:13.160Z,45.85
2017-03-31T06:31:12.164Z,40.20
2017-03-31T06:32:11.163Z,47.32
2017-03-31T06:33:10.155Z,39.15
2017-03-31T06:34:09.522Z,36.88
2017-03-31T06:35:08.551Z,29.27
2017-03-31T06:36:07.593Z,37.80
2017-03-31T06:37:06.667Z,40.72
2017-03-31T06:38:05.647Z,36.77
2017-03-31T06:39:04.797Z,40.15
2017-03-31T06:40:03.837Z,40.52
2017-03-31T06:41:02.868Z,35.02
2017-03-31T06:42:01.908Z,39.60
2017-03-31T06:43:00.875Z,46.97
2017-03-31T06:43:59.891Z,39.48
2017-03-31T06:44:58.887Z,38.20
2017-03-31T06:45:57.897Z,36.53
2017-03-31T06:46:56.921Z,36.87
2017-03-31T06:47:55.936Z,38.93
2017-03-31T06:48:54.948Z,41.05
2017-03-31T06:49:54.000Z,37.30
2017-03-31T06:50:52.603Z,38.18
2017-03-31T06:51:51.604Z,38.48
2017-03-31T06:52:50.603Z,36.30
2017-03-31T06:53:49.228Z,55.80
2017-03-31T06:54:47.782Z,45.40
2017-03-31T06:55:46.795Z,41.18
2017-03-31T06:56:45.767Z,44.80
2017-03-31T06:57:44.811Z,46.23
2017-03-31T06:58:43.808Z,34.88
2017-03-31T06:59:42.460Z,47.05
2017-03-31T07:00:41.088Z,43.52
2017-03-31T07:01:40.107Z,43.25
2017-03-31T07:02:39.163Z,38.18
2017-03-31T07:03:38.156Z,39.42
2017-03-31T07:04:37.121Z,37.35
2017-03-31T07:05:36.187Z,36.50
2017-03-31T07:06:35.181Z,37.77
2017-03-31T07:07:34.882Z,37.15
2017-03-31T07:08:33.520Z,35.37
2017-03-31T07:09:32.487Z,44.25
2017-03-31T07:10:31.547Z,64.23
2017-03-31T07:11:30.527Z,39.12
2017-03-31T07:12:29.569Z,33.78
2017-03-31T07:13:28.679Z,37.87
2017-03-31T07:14:27.691Z,40.30
2017-03-31T07:15:26.787Z,41.83
2017-03-31T07:16:25.792Z,45.90
2017-03-31T07:17:24.827Z,44.92
2017-03-31T07:18:23.858Z,40.63
2017-03-31T07:19:22.975Z,41.18
2017-03-31T07:20:21.999Z,42.65
2017-03-31T07:21:21.004Z,41.10
2017-03-31T07:22:20.141Z,38.53
2017-03-31T07:23:19.117Z,43.35
2017-03-31T07:24:18.211Z,39.37
2017-03-31T07:25:16.832Z,37.40
2017-03-31T07:26:15.477Z,39.82
2017-03-31T07:27:14.499Z,41.62
2017-03-31T07:28:13.127Z,50.45
2017-03-31T07:29:12.120Z,47.22
2017-03-31T07:30:10.719Z,36.05
2017-03-31T07:31:09.324Z,41.95
2017-03-31T07:32:08.371Z,35.38
2017-03-31T07:33:07.403Z,44.22
2017-03-31T07:34:06.455Z,38.88
2017-03-31T07:35:05.548Z,41.63
2017-03-31T07:36:04.177Z,41.23
2017-03-31T07:37:03.252Z,43.00
2017-03-31T07:38:02.375Z,43.82
2017-03-31T07:39:01.452Z,39.20
2017-03-31T07:40:00.470Z,36.73
2017-03-31T07:40:59.507Z,43.53
2017-03-31T07:41:58.470Z,43.05
2017-03-31T07:42:57.464Z,53.18
2017-03-31T07:43:56.592Z,38.77
2017-03-31T07:44:55.660Z,37.62
2017-03-31T07:45:54.671Z,36.53
2017-03-31T07:46:53.724Z,38.95
2017-03-31T07:47:52.703Z,44.78
2017-03-31T07:48:51.650Z,40.50
2017-03-31T07:49:50.651Z,40.82
2017-03-31T07:50:49.619Z,38.87
2017-03-31T07:51:48.622Z,39.90
2017-03-31T07:52:47.305Z,39.50
2017-03-31T07:53:45.902Z,45.70
2017-03-31T07:54:44.885Z,34.98
2017-03-31T07:55:43.904Z,39.12
2017-03-31T07:56:42.852Z,31.72
2017-03-31T07:57:41.907Z,39.47
2017-03-31T07:58:40.916Z,39.82
2017-03-31T07:59:39.934Z,48.95
2017-03-31T08:00:38.943Z,35.98
2017-03-31T08:01:37.907Z,36.65
2017-03-31T08:02:36.957Z,50.28
2017-03-31T08:03:35.990Z,37.13
2017-03-31T08:04:35.036Z,39.10
2017-03-31T08:05:33.659Z,37.63
2017-03-31T08:06:32.848Z,35.13
2017-03-31T08:07:31.863Z,41.68
2017-03-31T08:08:30.859Z,36.73
2017-03-31T08:09:29.500Z,38.83
2017-03-31T08:10:29.295Z,42.28
2017-03-31T08:11:27.911Z,36.92
2017-03-31T08:12:26.869Z,46.88
2017-03-31T08:13:25.980Z,40.43
2017-03-31T08:14:24.988Z,38.40
2017-03-31T08:15:24.347Z,47.45
2017-03-31T08:16:23.387Z,40.02
2017-03-31T08:17:22.387Z,44.35
2017-03-31T08:18:21.431Z,37.68
2017-03-31T08:19:21.156Z,37.20
2017-03-31T08:20:20.215Z,38.68
2017-03-31T08:21:19.180Z,43.93
2017-03-31T08:22:18.228Z,42.80
2017-03-31T08:23:17.232Z,35.73
2017-03-31T08:24:16.282Z,31.87
2017-03-31T08:25:14.903Z,37.92
2017-03-31T08:26:13.991Z,36.77
2017-03-31T08:27:12.995Z,46.48
2017-03-31T08:28:12.027Z,50.57
2017-03-31T08:29:11.020Z,41.95
2017-03-31T08:30:09.662Z,41.52
2017-03-31T08:31:08.635Z,44.00
2017-03-31T08:32:07.663Z,38.00
2017-03-31T08:33:06.663Z,38.57
2017-03-31T08:34:05.731Z,39.47
2017-03-31T08:35:04.528Z,38.48
2017-03-31T08:36:03.528Z,42.53
2017-03-31T08:37:02.567Z,34.73
2017-03-31T08:38:01.565Z,40.78
2017-03-31T08:39:00.543Z,36.68
2017-03-31T08:39:59.571Z,43.52
2017-03-31T08:40:58.895Z,39.12
2017-03-31T08:41:57.888Z,36.58
2017-03-31T08:42:56.944Z,41.55
2017-03-31T08:43:55.555Z,34.18
2017-03-31T08:44:54.547Z,35.72
2017-03-31T08:45:53.506Z,35.75
2017-03-31T08:46:52.507Z,37.30
2017-03-31T08:47:51.527Z,35.35
2017-03-31T08:48:50.495Z,37.15
2017-03-31T08:49:49.150Z,29.30
2017-03-31T08:50:48.168Z,50.30
2017-03-31T08:51:47.153Z,36.88
2017-03-31T08:52:46.163Z,41.23
2017-03-31T08:53:45.156Z,49.77
2017-03-31T08:54:44.135Z,33.22
2017-03-31T08:55:43.124Z,34.30
2017-03-31T08:56:42.132Z,42.43
2017-03-31T08:57:41.180Z,40.60
2017-03-31T08:58:40.126Z,36.87
2017-03-31T08:59:38.812Z,32.78
2017-03-31T09:00:37.811Z,35.53
2017-03-31T09:01:36.419Z,34.58
2017-03-31T09:02:35.407Z,37.75
2017-03-31T09:03:34.036Z,41.28
2017-03-31T09:04:32.707Z,30.00
2017-03-31T09:05:31.415Z,36.17
2017-03-31T09:06:30.382Z,40.75
2017-03-31T09:07:29.411Z,41.92
2017-03-31T09:08:28.431Z,35.67
2017-03-31T09:09:27.439Z,32.65
2017-03-31T09:10:26.836Z,32.40
2017-03-31T09:11:25.803Z,40.12
2017-03-31T09:12:24.787Z,35.68
2017-03-31T09:13:23.794Z,36.55
2017-03-31T09:14:22.812Z,37.57
2017-03-31T09:15:21.499Z,34.42
2017-03-31T09:16:20.534Z,39.60
2017-03-31T09:17:19.566Z,35.28
2017-03-31T09:18:18.987Z,39.67
2017-03-31T09:19:17.981Z,32.55
2017-03-31T09:20:17.628Z,31.87
2017-03-31T09:21:17.380Z,35.67
2017-03-31T09:22:16.351Z,38.02
2017-03-31T09:23:15.307Z,35.98
2017-03-31T09:24:14.295Z,33.35
2017-03-31T09:25:13.290Z,31.12
2017-03-31T09:26:12.234Z,38.12
2017-03-31T09:27:11.235Z,28.93
2017-03-31T09:28:10.240Z,41.48
2017-03-31T09:29:09.244Z,24.57
2017-03-31T09:30:08.233Z,35.55
2017-03-31T09:31:07.203Z,34.45
2017-03-31T09:32:06.252Z,24.33
2017-03-31T09:33:05.222Z,25.72
2017-03-31T09:34:04.351Z,28.22
2017-03-31T09:35:03.366Z,33.75
2017-03-31T09:36:02.353Z,38.38
2017-03-31T09:37:01.752Z,32.50
2017-03-31T09:38:00.320Z,30.47
2017-03-31T09:38:59.753Z,34.00
2017-03-31T09:39:58.795Z,40.58
2017-03-31T09:40:57.851Z,39.27
2017-03-31T09:41:56.867Z,28.68
2017-03-31T09:42:56.242Z,35.80
2017-03-31T09:43:55.203Z,28.28
2017-03-31T09:44:54.158Z,35.40
2017-03-31T09:45:53.164Z,42.55
2017-03-31T09:46:52.596Z,34.70
2017-03-31T09:47:51.932Z,35.52
2017-03-31T09:48:51.015Z,26.90
2017-03-31T09:49:50.002Z,48.50
2017-03-31T09:50:49.004Z,29.78
2017-03-31T09:51:48.017Z,30.08
2017-03-31T09:52:47.071Z,37.73
2017-03-31T09:53:45.676Z,28.03
2017-03-31T09:54:44.662Z,24.22
2017-03-31T09:55:43.274Z,26.12
2017-03-31T09:56:42.308Z,27.10
2017-03-31T09:57:41.324Z,36.83
2017-03-31T09:58:40.321Z,32.63
2017-03-31T09:59:39.280Z,33.15
2017-03-31T10:00:38.641Z,33.12
2017-03-31T10:01:37.680Z,31.45
2017-03-31T10:02:36.701Z,27.77
2017-03-31T10:03:35.732Z,28.40
2017-03-31T10:04:35.035Z,33.32
2017-03-31T10:05:34.075Z,29.93
2017-03-31T10:06:33.003Z,27.52
2017-03-31T10:07:32.062Z,30.95
2017-03-31T10:08:31.076Z,22.50
2017-03-31T10:09:29.727Z,30.80
2017-03-31T10:10:28.808Z,29.95
2017-03-31T10:11:27.915Z,31.73
2017-03-31T10:12:26.918Z,27.88
2017-03-31T10:13:25.871Z,31.33
2017-03-31T10:14:25.707Z,43.33
2017-03-31T10:15:24.329Z,26.82
2017-03-31T10:16:23.447Z,32.42
2017-03-31T10:17:22.512Z,27.88
2017-03-31T10:18:21.559Z,28.12
2017-03-31T10:19:20.555Z,27.27
2017-03-31T10:20:20.048Z,21.95
2017-03-31T10:21:19.105Z,29.88
2017-03-31T10:22:18.142Z,24.13
2017-03-31T10:23:17.225Z,28.43
2017-03-31T10:24:16.182Z,24.97
2017-03-31T10:25:14.771Z,27.60
2017-03-31T10:26:14.519Z,17.88
2017-03-31T10:27:13.575Z,16.83
2017-03-31T10:28:12.588Z,16.92
2017-03-31T10:29:11.683Z,25.70
2017-03-31T10:30:10.738Z,20.32
2017-03-31T10:31:09.719Z,17.18
2017-03-31T10:32:08.323Z,20.57
2017-03-31T10:33:06.944Z,22.10
2017-03-31T10:34:06.055Z,16.40
2017-03-31T10:35:05.043Z,15.67
2017-03-31T10:36:04.436Z,20.35
2017-03-31T10:37:03.419Z,16.43
2017-03-31T10:38:02.431Z,14.72
2017-03-31T10:39:01.443Z,15.73
2017-03-31T10:40:00.456Z,16.23
2017-03-31T10:40:59.032Z,18.98
2017-03-31T10:41:57.637Z,16.92
2017-03-31T10:42:56.620Z,13.97
2017-03-31T10:43:55.580Z,19.83
2017-03-31T10:44:54.592Z,16.50
2017-03-31T10:45:53.199Z,17.97
2017-03-31T10:46:52.160Z,15.83
2017-03-31T10:47:51.250Z,14.22
2017-03-31T10:48:50.235Z,17.15
2017-03-31T10:49:49.223Z,18.75
2017-03-31T10:50:48.207Z,10.82
2017-03-31T10:51:46.807Z,12.65
2017-03-31T10:52:45.871Z,15.37
2017-03-31T10:53:44.877Z,11.93
2017-03-31T10:54:43.576Z,20.77
2017-03-31T10:55:42.568Z,21.10
2017-03-31T10:56:41.595Z,20.35
2017-03-31T10:57:40.614Z,15.08
2017-03-31T10:58:39.660Z,14.47
2017-03-31T10:59:38.317Z,13.73
2017-03-31T11:00:37.076Z,11.33
2017-03-31T11:01:36.474Z,14.73
2017-03-31T11:02:35.495Z,12.28
2017-03-31T11:03:34.522Z,24.23
2017-03-31T11:04:33.578Z,19.05
2017-03-31T11:05:32.516Z,26.75
2017-03-31T11:06:31.130Z,19.55
2017-03-31T11:07:30.164Z,14.43
2017-03-31T11:08:28.776Z,12.78
2017-03-31T11:09:27.855Z,9.62
2017-03-31T11:10:26.868Z,12.33
2017-03-31T11:11:25.905Z,8.93
2017-03-31T11:12:24.475Z,10.62
2017-03-31T11:13:23.543Z,20.00
2017-03-31T11:14:22.541Z,12.33
2017-03-31T11:15:21.671Z,16.98
2017-03-31T11:16:20.303Z,18.02
2017-03-31T11:17:19.344Z,13.75
2017-03-31T11:18:18.319Z,19.00
2017-03-31T11:19:17.312Z,14.38
2017-03-31T11:20:16.318Z,18.52
2017-03-31T11:21:14.976Z,17.65
2017-03-31T11:22:13.947Z,16.08
2017-03-31T11:23:12.970Z,17.90
2017-03-31T11:24:12.184Z,12.80
2017-03-31T11:25:11.191Z,15.52
2017-03-31T11:26:10.238Z,11.90
2017-03-31T11:27:09.682Z,16.43
2017-03-31T11:28:08.692Z,17.40
2017-03-31T11:29:07.288Z,15.92
2017-03-31T11:30:06.303Z,11.05
2017-03-31T11:31:05.373Z,14.07
2017-03-31T11:32:04.366Z,12.65
2017-03-31T11:33:02.987Z,9.02
2017-03-31T11:34:01.571Z,12.22
2017-03-31T11:35:00.538Z,10.45
2017-03-31T11:35:59.489Z,11.68
2017-03-31T11:36:58.499Z,13.32
2017-03-31T11:37:57.459Z,22.32
2017-03-31T11:38:56.441Z,10.82
2017-03-31T11:39:55.455Z,13.82
2017-03-31T11:40:54.419Z,15.40
2017-03-31T11:41:53.449Z,10.77
2017-03-31T11:42:52.426Z,12.13
2017-03-31T11:43:51.392Z,13.30
2017-03-31T11:44:50.031Z,12.72
2017-03-31T11:45:49.005Z,14.93
2017-03-31T11:46:48.023Z,21.53
2017-03-31T11:47:47.044Z,19.25
2017-03-31T11:48:46.059Z,13.43
2017-03-31T11:49:45.043Z,11.65
2017-03-31T11:50:44.093Z,12.42
2017-03-31T11:51:43.072Z,11.17
2017-03-31T11:52:42.464Z,12.12
2017-03-31T11:53:41.459Z,9.17
2017-03-31T11:54:40.860Z,10.37
2017-03-31T11:55:40.326Z,13.43
2017-03-31T11:56:39.327Z,12.65
2017-03-31T11:57:38.711Z,10.67
2017-03-31T11:58:37.743Z,11.18
2017-03-31T11:59:36.855Z,8.70
2017-03-31T12:00:35.935Z,12.75
2017-03-31T12:01:34.564Z,12.33
2017-03-31T12:02:33.625Z,14.48
2017-03-31T12:03:32.587Z,11.97
2017-03-31T12:04:31.699Z,11.00
2017-03-31T12:05:30.307Z,9.38
2017-03-31T12:06:29.314Z,14.18
2017-03-31T12:07:28.303Z,18.67
2017-03-31T12:08:27.289Z,15.07
2017-03-31T12:09:26.379Z,10.73
2017-03-31T12:10:25.373Z,9.95
2017-03-31T12:11:23.979Z,16.35
2017-03-31T12:12:23.286Z,13.78
2017-03-31T12:13:22.290Z,12.35
2017-03-31T12:14:22.027Z,12.85
2017-03-31T12:15:21.027Z,10.35
2017-03-31T12:16:20.016Z,17.55
2017-03-31T12:17:19.026Z,15.17
2017-03-31T12:18:17.981Z,15.70
2017-03-31T12:19:17.019Z,9.27
2017-03-31T12:20:15.994Z,12.03
2017-03-31T12:21:14.993Z,12.78
2017-03-31T12:22:13.985Z,11.07
2017-03-31T12:23:12.980Z,13.67
2017-03-31T12:24:11.950Z,12.10
2017-03-31T12:25:10.902Z,9.05
2017-03-31T12:26:09.519Z,13.10
2017-03-31T12:27:08.530Z,8.67
2017-03-31T12:28:07.510Z,13.45
2017-03-31T12:29:06.502Z,11.12
2017-03-31T12:30:05.468Z,12.75
2017-03-31T12:31:04.451Z,12.83
2017-03-31T12:32:03.415Z,7.78
2017-03-31T12:33:02.418Z,9.03
2017-03-31T12:34:01.404Z,12.58
2017-03-31T12:35:00.419Z,13.05
2017-03-31T12:35:59.035Z,21.78
2017-03-31T12:36:58.022Z,14.62
2017-03-31T12:37:57.084Z,9.45
2017-03-31T12:38:56.839Z,11.48
2017-03-31T12:39:55.860Z,12.15
2017-03-31T12:40:54.415Z,20.90